sensor_id;sensor_type;location;lat;lon;timestamp;P1;durP1;ratioP1;P2;durP2;ratioP2
42346;SDS011;75728;51.856;6.314;2024-03-08T00:01:53;2.47;;;1.60;;
42346;SDS011;75728;51.856;6.314;2024-03-08T00:04:18;3.38;;;2.00;;
42346;SDS011;75728;51.856;6.314;2024-03-08T00:06:44;2.53;;;1.52;;
42346;SDS011;75728;51.856;6.314;2024-03-08T00:09:11;2.95;;;1.83;;
42346;SDS011;75728;51.856;6.314;2024-03-08T00:11:37;2.80;;;1.92;;
42346;SDS011;75728;51.856;6.314;2024-03-08T00:14:03;2.75;;;1.73;;
42346;SDS011;75728;51.856;6.314;2024-03-08T00:16:31;4.88;;;1.60;;
42346;SDS011;75728;51.856;6.314;2024-03-08T00:18:58;3.53;;;1.70;;
42346;SDS011;75728;51.856;6.314;2024-03-08T00:21:24;2.38;;;1.67;;
42346;SDS011;75728;51.856;6.314;2024-03-08T00:23:51;3.17;;;1.60;;
42346;SDS011;75728;51.856;6.314;2024-03-08T00:26:19;4.00;;;1.77;;
42346;SDS011;75728;51.856;6.314;2024-03-08T00:28:45;2.50;;;1.80;;
42346;SDS011;75728;51.856;6.314;2024-03-08T00:31:10;2.42;;;1.58;;
42346;SDS011;75728;51.856;6.314;2024-03-08T00:33:36;2.70;;;1.80;;
42346;SDS011;75728;51.856;6.314;2024-03-08T00:36:02;2.60;;;1.70;;
42346;SDS011;75728;51.856;6.314;2024-03-08T00:38:27;2.42;;;1.63;;
42346;SDS011;75728;51.856;6.314;2024-03-08T00:40:53;2.40;;;1.50;;
42346;SDS011;75728;51.856;6.314;2024-03-08T00:43:18;3.65;;;1.70;;
42346;SDS011;75728;51.856;6.314;2024-03-08T00:45:44;2.72;;;1.67;;
42346;SDS011;75728;51.856;6.314;2024-03-08T00:48:10;2.95;;;1.80;;
42346;SDS011;75728;51.856;6.314;2024-03-08T00:50:36;3.00;;;1.58;;
42346;SDS011;75728;51.856;6.314;2024-03-08T00:53:02;4.97;;;1.50;;
42346;SDS011;75728;51.856;6.314;2024-03-08T00:55:29;2.65;;;1.70;;
42346;SDS011;75728;51.856;6.314;2024-03-08T00:57:55;2.15;;;1.45;;
42346;SDS011;75728;51.856;6.314;2024-03-08T01:00:21;2.83;;;1.58;;
42346;SDS011;75728;51.856;6.314;2024-03-08T01:02:46;2.67;;;1.35;;
42346;SDS011;75728;51.856;6.314;2024-03-08T01:05:12;2.92;;;1.52;;
42346;SDS011;75728;51.856;6.314;2024-03-08T01:07:38;3.83;;;1.70;;
42346;SDS011;75728;51.856;6.314;2024-03-08T01:10:04;2.72;;;1.80;;
42346;SDS011;75728;51.856;6.314;2024-03-08T01:12:34;2.95;;;1.50;;
42346;SDS011;75728;51.856;6.314;2024-03-08T01:15:00;3.22;;;1.80;;
42346;SDS011;75728;51.856;6.314;2024-03-08T01:17:26;2.28;;;1.52;;
42346;SDS011;75728;51.856;6.314;2024-03-08T01:19:52;2.65;;;1.50;;
42346;SDS011;75728;51.856;6.314;2024-03-08T01:22:18;2.38;;;1.45;;
42346;SDS011;75728;51.856;6.314;2024-03-08T01:24:44;3.60;;;1.90;;
42346;SDS011;75728;51.856;6.314;2024-03-08T01:27:10;2.75;;;1.67;;
42346;SDS011;75728;51.856;6.314;2024-03-08T01:29:37;2.53;;;1.67;;
42346;SDS011;75728;51.856;6.314;2024-03-08T01:32:03;1.83;;;1.17;;
42346;SDS011;75728;51.856;6.314;2024-03-08T01:34:29;2.50;;;1.70;;
42346;SDS011;75728;51.856;6.314;2024-03-08T01:36:55;3.10;;;1.58;;
42346;SDS011;75728;51.856;6.314;2024-03-08T01:39:21;2.58;;;1.60;;
42346;SDS011;75728;51.856;6.314;2024-03-08T01:41:47;2.70;;;1.60;;
42346;SDS011;75728;51.856;6.314;2024-03-08T01:44:13;2.25;;;1.40;;
42346;SDS011;75728;51.856;6.314;2024-03-08T01:46:43;2.42;;;1.33;;
42346;SDS011;75728;51.856;6.314;2024-03-08T01:49:12;2.70;;;1.70;;
42346;SDS011;75728;51.856;6.314;2024-03-08T01:51:38;3.50;;;1.60;;
42346;SDS011;75728;51.856;6.314;2024-03-08T01:54:06;1.88;;;1.40;;
42346;SDS011;75728;51.856;6.314;2024-03-08T01:56:35;2.80;;;1.55;;
42346;SDS011;75728;51.856;6.314;2024-03-08T01:59:02;2.15;;;1.48;;
42346;SDS011;75728;51.856;6.314;2024-03-08T02:01:29;2.50;;;1.60;;
42346;SDS011;75728;51.856;6.314;2024-03-08T02:03:55;2.17;;;1.40;;
42346;SDS011;75728;51.856;6.314;2024-03-08T02:06:20;2.50;;;1.50;;
42346;SDS011;75728;51.856;6.314;2024-03-08T02:08:46;3.08;;;1.42;;
42346;SDS011;75728;51.856;6.314;2024-03-08T02:11:12;3.72;;;1.63;;
42346;SDS011;75728;51.856;6.314;2024-03-08T02:13:38;2.20;;;1.23;;
42346;SDS011;75728;51.856;6.314;2024-03-08T02:16:04;2.22;;;1.45;;
42346;SDS011;75728;51.856;6.314;2024-03-08T02:18:33;1.95;;;1.23;;
42346;SDS011;75728;51.856;6.314;2024-03-08T02:20:59;2.00;;;1.30;;
42346;SDS011;75728;51.856;6.314;2024-03-08T02:23:27;1.63;;;1.08;;
42346;SDS011;75728;51.856;6.314;2024-03-08T02:25:53;1.70;;;1.10;;
42346;SDS011;75728;51.856;6.314;2024-03-08T02:28:20;2.85;;;1.50;;
42346;SDS011;75728;51.856;6.314;2024-03-08T02:30:46;1.45;;;1.15;;
42346;SDS011;75728;51.856;6.314;2024-03-08T02:33:16;3.63;;;2.00;;
42346;SDS011;75728;51.856;6.314;2024-03-08T02:35:43;2.25;;;1.35;;
42346;SDS011;75728;51.856;6.314;2024-03-08T02:38:15;1.45;;;1.02;;
42346;SDS011;75728;51.856;6.314;2024-03-08T02:40:43;2.50;;;1.50;;
42346;SDS011;75728;51.856;6.314;2024-03-08T02:43:10;3.75;;;1.40;;
42346;SDS011;75728;51.856;6.314;2024-03-08T02:45:37;2.00;;;1.23;;
42346;SDS011;75728;51.856;6.314;2024-03-08T02:48:03;1.77;;;1.33;;
42346;SDS011;75728;51.856;6.314;2024-03-08T02:50:31;1.98;;;1.50;;
42346;SDS011;75728;51.856;6.314;2024-03-08T02:52:57;2.30;;;1.65;;
42346;SDS011;75728;51.856;6.314;2024-03-08T02:55:23;1.85;;;1.23;;
42346;SDS011;75728;51.856;6.314;2024-03-08T02:57:51;1.85;;;1.33;;
42346;SDS011;75728;51.856;6.314;2024-03-08T03:00:17;1.92;;;1.40;;
42346;SDS011;75728;51.856;6.314;2024-03-08T03:02:44;2.92;;;1.80;;
42346;SDS011;75728;51.856;6.314;2024-03-08T03:05:11;2.40;;;1.52;;
42346;SDS011;75728;51.856;6.314;2024-03-08T03:07:37;2.30;;;1.52;;
42346;SDS011;75728;51.856;6.314;2024-03-08T03:10:03;2.92;;;1.40;;
42346;SDS011;75728;51.856;6.314;2024-03-08T03:12:29;1.75;;;1.23;;
42346;SDS011;75728;51.856;6.314;2024-03-08T03:14:56;2.88;;;1.65;;
42346;SDS011;75728;51.856;6.314;2024-03-08T03:17:23;2.47;;;1.30;;
42346;SDS011;75728;51.856;6.314;2024-03-08T03:19:49;2.92;;;1.60;;
42346;SDS011;75728;51.856;6.314;2024-03-08T03:22:16;1.95;;;1.30;;
42346;SDS011;75728;51.856;6.314;2024-03-08T03:24:43;2.00;;;1.30;;
42346;SDS011;75728;51.856;6.314;2024-03-08T03:27:09;2.20;;;1.30;;
42346;SDS011;75728;51.856;6.314;2024-03-08T03:29:38;2.55;;;1.38;;
42346;SDS011;75728;51.856;6.314;2024-03-08T03:32:11;2.33;;;1.40;;
42346;SDS011;75728;51.856;6.314;2024-03-08T03:34:37;3.53;;;1.70;;
42346;SDS011;75728;51.856;6.314;2024-03-08T03:37:06;1.58;;;1.23;;
42346;SDS011;75728;51.856;6.314;2024-03-08T03:39:33;2.70;;;1.50;;
42346;SDS011;75728;51.856;6.314;2024-03-08T03:42:02;2.42;;;1.40;;
42346;SDS011;75728;51.856;6.314;2024-03-08T03:44:28;2.00;;;1.20;;
42346;SDS011;75728;51.856;6.314;2024-03-08T03:46:54;2.60;;;1.48;;
42346;SDS011;75728;51.856;6.314;2024-03-08T03:49:20;1.90;;;1.10;;
42346;SDS011;75728;51.856;6.314;2024-03-08T03:51:46;1.80;;;1.30;;
42346;SDS011;75728;51.856;6.314;2024-03-08T03:54:12;2.15;;;1.33;;
42346;SDS011;75728;51.856;6.314;2024-03-08T03:56:38;2.03;;;1.38;;
42346;SDS011;75728;51.856;6.314;2024-03-08T03:59:05;1.90;;;1.35;;
42346;SDS011;75728;51.856;6.314;2024-03-08T04:01:32;1.92;;;1.13;;
42346;SDS011;75728;51.856;6.314;2024-03-08T04:03:59;1.70;;;1.10;;
42346;SDS011;75728;51.856;6.314;2024-03-08T04:06:24;1.85;;;1.20;;
42346;SDS011;75728;51.856;6.314;2024-03-08T04:08:50;2.22;;;1.30;;
42346;SDS011;75728;51.856;6.314;2024-03-08T04:11:16;1.95;;;1.30;;
42346;SDS011;75728;51.856;6.314;2024-03-08T04:13:42;2.22;;;1.30;;
42346;SDS011;75728;51.856;6.314;2024-03-08T04:16:08;2.60;;;1.50;;
42346;SDS011;75728;51.856;6.314;2024-03-08T04:18:37;1.73;;;1.20;;
42346;SDS011;75728;51.856;6.314;2024-03-08T04:21:04;2.17;;;1.48;;
42346;SDS011;75728;51.856;6.314;2024-03-08T04:23:33;1.60;;;1.13;;
42346;SDS011;75728;51.856;6.314;2024-03-08T04:26:01;2.35;;;1.42;;
42346;SDS011;75728;51.856;6.314;2024-03-08T04:28:28;1.50;;;1.02;;
42346;SDS011;75728;51.856;6.314;2024-03-08T04:30:54;1.58;;;1.10;;
42346;SDS011;75728;51.856;6.314;2024-03-08T04:33:19;2.80;;;1.20;;
42346;SDS011;75728;51.856;6.314;2024-03-08T04:35:46;2.03;;;1.25;;
42346;SDS011;75728;51.856;6.314;2024-03-08T04:38:12;2.20;;;1.30;;
42346;SDS011;75728;51.856;6.314;2024-03-08T04:40:38;2.28;;;1.38;;
42346;SDS011;75728;51.856;6.314;2024-03-08T04:43:04;1.90;;;1.17;;
42346;SDS011;75728;51.856;6.314;2024-03-08T04:45:31;2.15;;;1.35;;
42346;SDS011;75728;51.856;6.314;2024-03-08T04:47:57;1.67;;;1.20;;
42346;SDS011;75728;51.856;6.314;2024-03-08T04:50:22;2.28;;;1.33;;
42346;SDS011;75728;51.856;6.314;2024-03-08T04:52:48;2.10;;;1.30;;
42346;SDS011;75728;51.856;6.314;2024-03-08T04:55:14;1.67;;;1.30;;
42346;SDS011;75728;51.856;6.314;2024-03-08T04:57:39;2.17;;;1.35;;
42346;SDS011;75728;51.856;6.314;2024-03-08T05:00:07;1.73;;;1.10;;
42346;SDS011;75728;51.856;6.314;2024-03-08T05:02:36;2.13;;;1.25;;
42346;SDS011;75728;51.856;6.314;2024-03-08T05:05:04;1.92;;;1.20;;
42346;SDS011;75728;51.856;6.314;2024-03-08T05:07:31;1.50;;;1.00;;
42346;SDS011;75728;51.856;6.314;2024-03-08T05:09:58;1.30;;;0.90;;
42346;SDS011;75728;51.856;6.314;2024-03-08T05:12:24;1.85;;;1.10;;
42346;SDS011;75728;51.856;6.314;2024-03-08T05:14:49;2.13;;;1.30;;
42346;SDS011;75728;51.856;6.314;2024-03-08T05:17:15;1.90;;;1.38;;
42346;SDS011;75728;51.856;6.314;2024-03-08T05:19:44;2.28;;;1.10;;
42346;SDS011;75728;51.856;6.314;2024-03-08T05:22:10;1.83;;;1.23;;
42346;SDS011;75728;51.856;6.314;2024-03-08T05:24:35;3.90;;;1.58;;
42346;SDS011;75728;51.856;6.314;2024-03-08T05:27:01;1.73;;;1.13;;
42346;SDS011;75728;51.856;6.314;2024-03-08T05:29:28;3.20;;;1.35;;
42346;SDS011;75728;51.856;6.314;2024-03-08T05:31:54;1.98;;;1.27;;
42346;SDS011;75728;51.856;6.314;2024-03-08T05:34:21;1.50;;;1.00;;
42346;SDS011;75728;51.856;6.314;2024-03-08T05:36:48;2.10;;;1.40;;
42346;SDS011;75728;51.856;6.314;2024-03-08T05:39:17;1.90;;;1.10;;
42346;SDS011;75728;51.856;6.314;2024-03-08T05:41:43;1.75;;;1.15;;
42346;SDS011;75728;51.856;6.314;2024-03-08T05:44:11;1.58;;;1.00;;
42346;SDS011;75728;51.856;6.314;2024-03-08T05:46:37;1.35;;;1.10;;
42346;SDS011;75728;51.856;6.314;2024-03-08T05:49:04;1.38;;;1.00;;
42346;SDS011;75728;51.856;6.314;2024-03-08T05:51:31;1.67;;;1.10;;
42346;SDS011;75728;51.856;6.314;2024-03-08T05:54:01;2.33;;;1.60;;
42346;SDS011;75728;51.856;6.314;2024-03-08T05:56:30;1.30;;;1.00;;
42346;SDS011;75728;51.856;6.314;2024-03-08T05:58:57;1.90;;;1.10;;
42346;SDS011;75728;51.856;6.314;2024-03-08T06:01:25;1.83;;;1.20;;
42346;SDS011;75728;51.856;6.314;2024-03-08T06:03:52;1.85;;;1.10;;
42346;SDS011;75728;51.856;6.314;2024-03-08T06:06:20;1.83;;;1.10;;
42346;SDS011;75728;51.856;6.314;2024-03-08T06:08:47;2.80;;;1.08;;
42346;SDS011;75728;51.856;6.314;2024-03-08T06:11:14;2.90;;;1.40;;
42346;SDS011;75728;51.856;6.314;2024-03-08T06:13:42;1.88;;;1.10;;
42346;SDS011;75728;51.856;6.314;2024-03-08T06:16:08;1.55;;;1.00;;
42346;SDS011;75728;51.856;6.314;2024-03-08T06:18:34;1.20;;;1.00;;
42346;SDS011;75728;51.856;6.314;2024-03-08T06:21:03;1.80;;;1.10;;
42346;SDS011;75728;51.856;6.314;2024-03-08T06:23:32;4.72;;;2.38;;
42346;SDS011;75728;51.856;6.314;2024-03-08T06:25:58;2.10;;;1.30;;
42346;SDS011;75728;51.856;6.314;2024-03-08T06:28:24;1.65;;;1.20;;
42346;SDS011;75728;51.856;6.314;2024-03-08T06:30:50;1.45;;;1.02;;
42346;SDS011;75728;51.856;6.314;2024-03-08T06:33:16;2.13;;;1.02;;
42346;SDS011;75728;51.856;6.314;2024-03-08T06:35:43;1.50;;;1.05;;
42346;SDS011;75728;51.856;6.314;2024-03-08T06:38:09;1.13;;;0.73;;
42346;SDS011;75728;51.856;6.314;2024-03-08T06:40:35;2.17;;;1.20;;
42346;SDS011;75728;51.856;6.314;2024-03-08T06:43:00;1.45;;;0.90;;
42346;SDS011;75728;51.856;6.314;2024-03-08T06:45:26;1.73;;;0.95;;
42346;SDS011;75728;51.856;6.314;2024-03-08T06:47:51;1.48;;;1.02;;
42346;SDS011;75728;51.856;6.314;2024-03-08T06:50:17;2.10;;;1.17;;
42346;SDS011;75728;51.856;6.314;2024-03-08T06:52:43;1.45;;;1.00;;
42346;SDS011;75728;51.856;6.314;2024-03-08T06:55:11;1.77;;;0.95;;
42346;SDS011;75728;51.856;6.314;2024-03-08T06:57:40;1.95;;;1.15;;
42346;SDS011;75728;51.856;6.314;2024-03-08T07:00:07;2.13;;;1.15;;
42346;SDS011;75728;51.856;6.314;2024-03-08T07:02:38;1.35;;;1.00;;
42346;SDS011;75728;51.856;6.314;2024-03-08T07:05:07;2.25;;;1.10;;
42346;SDS011;75728;51.856;6.314;2024-03-08T07:07:35;2.08;;;1.15;;
42346;SDS011;75728;51.856;6.314;2024-03-08T07:10:01;1.30;;;0.90;;
42346;SDS011;75728;51.856;6.314;2024-03-08T07:12:27;2.20;;;1.40;;
42346;SDS011;75728;51.856;6.314;2024-03-08T07:14:52;1.65;;;1.23;;
42346;SDS011;75728;51.856;6.314;2024-03-08T07:17:18;2.40;;;0.88;;
42346;SDS011;75728;51.856;6.314;2024-03-08T07:19:44;1.70;;;1.30;;
42346;SDS011;75728;51.856;6.314;2024-03-08T07:22:10;1.50;;;1.10;;
42346;SDS011;75728;51.856;6.314;2024-03-08T07:24:36;1.50;;;1.10;;
42346;SDS011;75728;51.856;6.314;2024-03-08T07:27:02;2.00;;;1.17;;
42346;SDS011;75728;51.856;6.314;2024-03-08T07:29:34;1.23;;;0.90;;
42346;SDS011;75728;51.856;6.314;2024-03-08T07:32:00;1.40;;;1.05;;
42346;SDS011;75728;51.856;6.314;2024-03-08T07:34:37;1.83;;;1.17;;
42346;SDS011;75728;51.856;6.314;2024-03-08T07:37:04;16.80;;;14.15;;
42346;SDS011;75728;51.856;6.314;2024-03-08T07:39:31;17.58;;;14.23;;
42346;SDS011;75728;51.856;6.314;2024-03-08T07:41:57;18.23;;;15.07;;
42346;SDS011;75728;51.856;6.314;2024-03-08T07:44:22;17.92;;;14.75;;
42346;SDS011;75728;51.856;6.314;2024-03-08T07:46:49;18.52;;;15.10;;
42346;SDS011;75728;51.856;6.314;2024-03-08T07:49:14;19.02;;;15.13;;
42346;SDS011;75728;51.856;6.314;2024-03-08T07:51:40;20.90;;;16.17;;
42346;SDS011;75728;51.856;6.314;2024-03-08T07:54:06;20.70;;;16.15;;
42346;SDS011;75728;51.856;6.314;2024-03-08T07:56:34;19.45;;;15.88;;
42346;SDS011;75728;51.856;6.314;2024-03-08T07:59:01;21.08;;;16.25;;
42346;SDS011;75728;51.856;6.314;2024-03-08T08:01:29;19.98;;;16.02;;
42346;SDS011;75728;51.856;6.314;2024-03-08T08:03:55;20.52;;;15.55;;
42346;SDS011;75728;51.856;6.314;2024-03-08T08:06:21;20.58;;;16.52;;
42346;SDS011;75728;51.856;6.314;2024-03-08T08:08:47;20.73;;;16.17;;
42346;SDS011;75728;51.856;6.314;2024-03-08T08:11:13;19.80;;;16.30;;
42346;SDS011;75728;51.856;6.314;2024-03-08T08:13:41;17.58;;;15.65;;
42346;SDS011;75728;51.856;6.314;2024-03-08T08:16:08;21.08;;;16.23;;
42346;SDS011;75728;51.856;6.314;2024-03-08T08:18:35;17.88;;;15.00;;
42346;SDS011;75728;51.856;6.314;2024-03-08T08:21:02;18.65;;;15.90;;
42346;SDS011;75728;51.856;6.314;2024-03-08T08:23:29;18.25;;;15.38;;
42346;SDS011;75728;51.856;6.314;2024-03-08T08:25:55;19.23;;;15.80;;
42346;SDS011;75728;51.856;6.314;2024-03-08T08:28:20;19.08;;;16.15;;
42346;SDS011;75728;51.856;6.314;2024-03-08T08:30:46;19.95;;;16.00;;
42346;SDS011;75728;51.856;6.314;2024-03-08T08:33:13;19.17;;;15.77;;
42346;SDS011;75728;51.856;6.314;2024-03-08T08:35:40;18.70;;;15.63;;
42346;SDS011;75728;51.856;6.314;2024-03-08T08:38:05;20.35;;;16.48;;
42346;SDS011;75728;51.856;6.314;2024-03-08T08:40:32;18.27;;;15.05;;
42346;SDS011;75728;51.856;6.314;2024-03-08T08:43:02;18.83;;;15.55;;
42346;SDS011;75728;51.856;6.314;2024-03-08T08:45:32;18.23;;;15.43;;
42346;SDS011;75728;51.856;6.314;2024-03-08T08:47:58;17.08;;;14.73;;
42346;SDS011;75728;51.856;6.314;2024-03-08T08:50:27;19.33;;;16.10;;
42346;SDS011;75728;51.856;6.314;2024-03-08T08:52:53;18.27;;;15.23;;
42346;SDS011;75728;51.856;6.314;2024-03-08T08:55:20;19.17;;;15.93;;
42346;SDS011;75728;51.856;6.314;2024-03-08T08:57:46;19.30;;;14.65;;
42346;SDS011;75728;51.856;6.314;2024-03-08T09:00:16;20.23;;;14.57;;
42346;SDS011;75728;51.856;6.314;2024-03-08T09:02:46;17.80;;;14.27;;
42346;SDS011;75728;51.856;6.314;2024-03-08T09:05:13;20.23;;;14.85;;
42346;SDS011;75728;51.856;6.314;2024-03-08T09:07:42;18.35;;;14.10;;
42346;SDS011;75728;51.856;6.314;2024-03-08T09:10:09;17.45;;;15.00;;
42346;SDS011;75728;51.856;6.314;2024-03-08T09:12:37;18.40;;;14.20;;
42346;SDS011;75728;51.856;6.314;2024-03-08T09:15:06;18.90;;;14.52;;
42346;SDS011;75728;51.856;6.314;2024-03-08T09:17:36;18.35;;;14.75;;
42346;SDS011;75728;51.856;6.314;2024-03-08T09:20:05;16.92;;;13.48;;
42346;SDS011;75728;51.856;6.314;2024-03-08T09:22:32;18.60;;;14.57;;
42346;SDS011;75728;51.856;6.314;2024-03-08T09:24:57;17.48;;;14.10;;
42346;SDS011;75728;51.856;6.314;2024-03-08T09:27:23;17.88;;;14.00;;
42346;SDS011;75728;51.856;6.314;2024-03-08T09:29:49;19.52;;;14.77;;
42346;SDS011;75728;51.856;6.314;2024-03-08T09:32:14;18.02;;;14.50;;
42346;SDS011;75728;51.856;6.314;2024-03-08T09:34:40;20.40;;;14.60;;
42346;SDS011;75728;51.856;6.314;2024-03-08T09:37:06;18.88;;;13.82;;
42346;SDS011;75728;51.856;6.314;2024-03-08T09:39:31;17.10;;;13.32;;
42346;SDS011;75728;51.856;6.314;2024-03-08T09:41:58;17.73;;;13.40;;
42346;SDS011;75728;51.856;6.314;2024-03-08T09:44:24;16.98;;;14.27;;
42346;SDS011;75728;51.856;6.314;2024-03-08T09:46:50;18.10;;;13.40;;
42346;SDS011;75728;51.856;6.314;2024-03-08T09:49:19;20.00;;;13.90;;
42346;SDS011;75728;51.856;6.314;2024-03-08T09:51:45;17.27;;;13.63;;
42346;SDS011;75728;51.856;6.314;2024-03-08T09:54:12;17.98;;;14.43;;
42346;SDS011;75728;51.856;6.314;2024-03-08T09:56:39;17.40;;;13.77;;
42346;SDS011;75728;51.856;6.314;2024-03-08T09:59:06;19.42;;;14.00;;
42346;SDS011;75728;51.856;6.314;2024-03-08T10:01:51;17.45;;;14.10;;
42346;SDS011;75728;51.856;6.314;2024-03-08T10:04:23;18.33;;;13.68;;
42346;SDS011;75728;51.856;6.314;2024-03-08T10:06:50;18.52;;;14.10;;
42346;SDS011;75728;51.856;6.314;2024-03-08T10:09:17;18.52;;;14.05;;
42346;SDS011;75728;51.856;6.314;2024-03-08T10:11:43;17.05;;;13.27;;
42346;SDS011;75728;51.856;6.314;2024-03-08T10:14:10;15.02;;;13.10;;
42346;SDS011;75728;51.856;6.314;2024-03-08T10:16:36;16.10;;;12.95;;
42346;SDS011;75728;51.856;6.314;2024-03-08T10:19:03;18.60;;;13.23;;
42346;SDS011;75728;51.856;6.314;2024-03-08T10:21:30;16.23;;;13.00;;
42346;SDS011;75728;51.856;6.314;2024-03-08T10:23:57;16.85;;;13.20;;
42346;SDS011;75728;51.856;6.314;2024-03-08T10:26:24;16.98;;;13.38;;
42346;SDS011;75728;51.856;6.314;2024-03-08T10:28:50;16.23;;;13.18;;
42346;SDS011;75728;51.856;6.314;2024-03-08T10:31:20;15.82;;;12.73;;
42346;SDS011;75728;51.856;6.314;2024-03-08T10:33:46;15.93;;;12.25;;
42346;SDS011;75728;51.856;6.314;2024-03-08T10:36:13;15.77;;;13.10;;
42346;SDS011;75728;51.856;6.314;2024-03-08T10:38:40;18.20;;;13.52;;
42346;SDS011;75728;51.856;6.314;2024-03-08T10:41:08;16.35;;;11.85;;
42346;SDS011;75728;51.856;6.314;2024-03-08T10:48:53;17.95;;;12.48;;
42346;SDS011;75728;51.856;6.314;2024-03-08T10:51:23;14.23;;;11.73;;
42346;SDS011;75728;51.856;6.314;2024-03-08T10:53:50;14.93;;;12.60;;
42346;SDS011;75728;51.856;6.314;2024-03-08T10:56:17;15.00;;;12.18;;
42346;SDS011;75728;51.856;6.314;2024-03-08T10:58:43;14.88;;;11.68;;
42346;SDS011;75728;51.856;6.314;2024-03-08T11:01:09;14.57;;;11.75;;
42346;SDS011;75728;51.856;6.314;2024-03-08T11:06:08;15.52;;;11.45;;
42346;SDS011;75728;51.856;6.314;2024-03-08T11:08:53;16.38;;;11.55;;
42346;SDS011;75728;51.856;6.314;2024-03-08T11:11:30;14.93;;;11.77;;
42346;SDS011;75728;51.856;6.314;2024-03-08T11:13:57;15.40;;;12.18;;
42346;SDS011;75728;51.856;6.314;2024-03-08T11:19:05;15.02;;;11.73;;
42346;SDS011;75728;51.856;6.314;2024-03-08T11:21:35;14.00;;;11.07;;
42346;SDS011;75728;51.856;6.314;2024-03-08T11:24:13;14.77;;;11.43;;
42346;SDS011;75728;51.856;6.314;2024-03-08T11:26:41;15.68;;;11.68;;
42346;SDS011;75728;51.856;6.314;2024-03-08T11:32:16;15.15;;;11.45;;
42346;SDS011;75728;51.856;6.314;2024-03-08T11:34:45;13.27;;;11.18;;
42346;SDS011;75728;51.856;6.314;2024-03-08T11:37:16;13.23;;;10.93;;
42346;SDS011;75728;51.856;6.314;2024-03-08T11:39:53;15.15;;;11.57;;
42346;SDS011;75728;51.856;6.314;2024-03-08T11:42:24;12.68;;;10.70;;
42346;SDS011;75728;51.856;6.314;2024-03-08T11:44:53;15.25;;;11.57;;
42346;SDS011;75728;51.856;6.314;2024-03-08T11:47:20;16.30;;;13.70;;
42346;SDS011;75728;51.856;6.314;2024-03-08T11:49:46;16.33;;;14.63;;
42346;SDS011;75728;51.856;6.314;2024-03-08T11:52:13;16.75;;;14.98;;
42346;SDS011;75728;51.856;6.314;2024-03-08T11:54:41;15.95;;;14.45;;
42346;SDS011;75728;51.856;6.314;2024-03-08T11:57:08;16.55;;;14.95;;
42346;SDS011;75728;51.856;6.314;2024-03-08T11:59:35;16.45;;;14.85;;
42346;SDS011;75728;51.856;6.314;2024-03-08T12:02:01;15.73;;;14.23;;
42346;SDS011;75728;51.856;6.314;2024-03-08T12:04:31;15.75;;;14.25;;
42346;SDS011;75728;51.856;6.314;2024-03-08T12:07:00;16.40;;;14.65;;
42346;SDS011;75728;51.856;6.314;2024-03-08T12:09:34;16.17;;;14.68;;
42346;SDS011;75728;51.856;6.314;2024-03-08T12:12:01;14.57;;;13.20;;
42346;SDS011;75728;51.856;6.314;2024-03-08T12:14:32;12.98;;;10.52;;
42346;SDS011;75728;51.856;6.314;2024-03-08T12:16:58;13.65;;;10.75;;
42346;SDS011;75728;51.856;6.314;2024-03-08T12:19:29;15.10;;;11.43;;
42346;SDS011;75728;51.856;6.314;2024-03-08T12:21:55;15.35;;;11.40;;
42346;SDS011;75728;51.856;6.314;2024-03-08T12:24:21;16.95;;;12.35;;
42346;SDS011;75728;51.856;6.314;2024-03-08T12:26:47;15.82;;;14.32;;
42346;SDS011;75728;51.856;6.314;2024-03-08T12:31:47;16.25;;;14.65;;
42346;SDS011;75728;51.856;6.314;2024-03-08T12:34:18;16.17;;;14.63;;
42346;SDS011;75728;51.856;6.314;2024-03-08T12:36:45;16.25;;;14.82;;
42346;SDS011;75728;51.856;6.314;2024-03-08T12:39:15;15.50;;;12.32;;
42346;SDS011;75728;51.856;6.314;2024-03-08T12:41:43;15.63;;;12.50;;
42346;SDS011;75728;51.856;6.314;2024-03-08T12:44:09;16.48;;;12.20;;
42346;SDS011;75728;51.856;6.314;2024-03-08T12:46:36;17.55;;;11.85;;
42346;SDS011;75728;51.856;6.314;2024-03-08T12:49:08;20.08;;;12.38;;
42346;SDS011;75728;51.856;6.314;2024-03-08T12:51:35;14.40;;;12.13;;
42346;SDS011;75728;51.856;6.314;2024-03-08T12:54:02;17.27;;;11.93;;
42346;SDS011;75728;51.856;6.314;2024-03-08T12:56:29;15.15;;;11.80;;
42346;SDS011;75728;51.856;6.314;2024-03-08T12:58:57;17.02;;;12.32;;
42346;SDS011;75728;51.856;6.314;2024-03-08T13:01:22;15.52;;;12.48;;
42346;SDS011;75728;51.856;6.314;2024-03-08T13:03:48;14.35;;;11.10;;
42346;SDS011;75728;51.856;6.314;2024-03-08T13:06:17;17.40;;;12.60;;
42346;SDS011;75728;51.856;6.314;2024-03-08T13:08:46;13.57;;;11.60;;
42346;SDS011;75728;51.856;6.314;2024-03-08T13:11:13;14.35;;;11.70;;
42346;SDS011;75728;51.856;6.314;2024-03-08T13:13:42;16.05;;;12.45;;
42346;SDS011;75728;51.856;6.314;2024-03-08T13:16:09;17.88;;;13.30;;
42346;SDS011;75728;51.856;6.314;2024-03-08T13:18:36;16.40;;;12.75;;
42346;SDS011;75728;51.856;6.314;2024-03-08T13:21:02;15.95;;;12.20;;
42346;SDS011;75728;51.856;6.314;2024-03-08T13:23:32;13.73;;;11.18;;
42346;SDS011;75728;51.856;6.314;2024-03-08T13:26:04;14.55;;;11.60;;
42346;SDS011;75728;51.856;6.314;2024-03-08T13:28:33;15.10;;;11.57;;
42346;SDS011;75728;51.856;6.314;2024-03-08T13:31:05;15.50;;;11.75;;
42346;SDS011;75728;51.856;6.314;2024-03-08T13:33:32;14.82;;;11.48;;
42346;SDS011;75728;51.856;6.314;2024-03-08T13:36:00;14.05;;;11.48;;
42346;SDS011;75728;51.856;6.314;2024-03-08T13:38:28;16.70;;;11.65;;
42346;SDS011;75728;51.856;6.314;2024-03-08T13:40:54;13.27;;;10.90;;
42346;SDS011;75728;51.856;6.314;2024-03-08T13:43:19;17.38;;;12.18;;
42346;SDS011;75728;51.856;6.314;2024-03-08T13:45:45;14.05;;;11.10;;
42346;SDS011;75728;51.856;6.314;2024-03-08T13:48:11;15.25;;;11.38;;
42346;SDS011;75728;51.856;6.314;2024-03-08T13:50:38;13.68;;;11.30;;
42346;SDS011;75728;51.856;6.314;2024-03-08T13:53:04;15.63;;;11.50;;
42346;SDS011;75728;51.856;6.314;2024-03-08T13:55:30;15.80;;;12.40;;
42346;SDS011;75728;51.856;6.314;2024-03-08T13:57:56;14.43;;;11.80;;
42346;SDS011;75728;51.856;6.314;2024-03-08T14:00:22;13.77;;;11.57;;
42346;SDS011;75728;51.856;6.314;2024-03-08T14:02:50;14.23;;;11.63;;
42346;SDS011;75728;51.856;6.314;2024-03-08T14:05:16;14.43;;;11.75;;
42346;SDS011;75728;51.856;6.314;2024-03-08T14:07:44;15.02;;;11.52;;
42346;SDS011;75728;51.856;6.314;2024-03-08T14:10:13;14.55;;;11.27;;
42346;SDS011;75728;51.856;6.314;2024-03-08T14:12:40;15.07;;;11.45;;
42346;SDS011;75728;51.856;6.314;2024-03-08T14:15:07;17.05;;;11.90;;
42346;SDS011;75728;51.856;6.314;2024-03-08T14:17:34;14.88;;;11.88;;
42346;SDS011;75728;51.856;6.314;2024-03-08T14:20:01;17.33;;;11.80;;
42346;SDS011;75728;51.856;6.314;2024-03-08T14:22:26;16.33;;;11.52;;
42346;SDS011;75728;51.856;6.314;2024-03-08T14:24:52;14.60;;;11.82;;
42346;SDS011;75728;51.856;6.314;2024-03-08T14:27:20;14.00;;;11.13;;
42346;SDS011;75728;51.856;6.314;2024-03-08T14:29:47;15.27;;;11.63;;
42346;SDS011;75728;51.856;6.314;2024-03-08T14:32:13;13.90;;;11.27;;
42346;SDS011;75728;51.856;6.314;2024-03-08T14:34:39;13.57;;;11.13;;
42346;SDS011;75728;51.856;6.314;2024-03-08T14:37:05;15.57;;;10.82;;
42346;SDS011;75728;51.856;6.314;2024-03-08T14:39:36;14.25;;;11.13;;
42346;SDS011;75728;51.856;6.314;2024-03-08T14:42:02;14.07;;;11.25;;
42346;SDS011;75728;51.856;6.314;2024-03-08T14:44:28;13.65;;;11.20;;
42346;SDS011;75728;51.856;6.314;2024-03-08T14:46:58;18.35;;;11.55;;
42346;SDS011;75728;51.856;6.314;2024-03-08T14:49:24;12.55;;;10.70;;
42346;SDS011;75728;51.856;6.314;2024-03-08T14:51:54;14.48;;;11.50;;